sensor_id;sensor_type;location;lat;lon;timestamp;pressure;altitude;pressure_sealevel;temperature;humidity
58761;BME280;44529;47.464;19.014;2022-08-18T00:01:05;99723.34;;;22.79;56.74
58761;BME280;44529;47.464;19.014;2022-08-18T00:04:09;99717.47;;;22.80;57.58
58761;BME280;44529;47.464;19.014;2022-08-18T00:07:32;99709.56;;;22.82;58.76
58761;BME280;44529;47.464;19.014;2022-08-18T00:10:35;99700.09;;;22.87;59.29
58761;BME280;44529;47.464;19.014;2022-08-18T00:13:37;99693.38;;;22.84;59.13
58761;BME280;44529;47.464;19.014;2022-08-18T00:16:40;99699.97;;;22.97;58.84
58761;BME280;44529;47.464;19.014;2022-08-18T00:19:42;99696.34;;;23.08;58.97
58761;BME280;44529;47.464;19.014;2022-08-18T00:22:49;99693.84;;;23.20;59.18
58761;BME280;44529;47.464;19.014;2022-08-18T00:25:54;99695.66;;;23.34;59.36
58761;BME280;44529;47.464;19.014;2022-08-18T00:28:56;99692.78;;;23.45;59.39
58761;BME280;44529;47.464;19.014;2022-08-18T00:31:58;99689.94;;;23.52;59.15
58761;BME280;44529;47.464;19.014;2022-08-18T00:35:13;99696.25;;;23.52;61.39
58761;BME280;44529;47.464;19.014;2022-08-18T00:38:16;99694.16;;;23.60;61.41
58761;BME280;44529;47.464;19.014;2022-08-18T00:41:26;99703.28;;;23.57;60.64
58761;BME280;44529;47.464;19.014;2022-08-18T00:44:29;99695.38;;;23.59;61.29
58761;BME280;44529;47.464;19.014;2022-08-18T00:47:31;99697.31;;;23.62;62.04
58761;BME280;44529;47.464;19.014;2022-08-18T00:50:58;99702.06;;;23.62;61.34
58761;BME280;44529;47.464;19.014;2022-08-18T00:54:15;99702.03;;;23.65;62.13
58761;BME280;44529;47.464;19.014;2022-08-18T00:57:21;99707.97;;;23.60;61.73
58761;BME280;44529;47.464;19.014;2022-08-18T01:00:24;99709.94;;;23.60;62.57
58761;BME280;44529;47.464;19.014;2022-08-18T01:03:27;99708.75;;;23.64;62.22
58761;BME280;44529;47.464;19.014;2022-08-18T01:09:35;99711.50;;;23.61;62.65
58761;BME280;44529;47.464;19.014;2022-08-18T01:12:38;99709.16;;;23.63;62.88
58761;BME280;44529;47.464;19.014;2022-08-18T01:15:47;99704.81;;;23.62;63.39
58761;BME280;44529;47.464;19.014;2022-08-18T01:18:50;99713.78;;;23.69;62.80
58761;BME280;44529;47.464;19.014;2022-08-18T01:23:25;99716.06;;;23.78;63.18
58761;BME280;44529;47.464;19.014;2022-08-18T01:25:55;99723.25;;;23.72;64.86
58761;BME280;44529;47.464;19.014;2022-08-18T01:29:05;99720.09;;;23.70;63.71
58761;BME280;44529;47.464;19.014;2022-08-18T01:32:15;99724.44;;;23.71;63.36
58761;BME280;44529;47.464;19.014;2022-08-18T01:35:22;99720.97;;;23.63;64.99
58761;BME280;44529;47.464;19.014;2022-08-18T01:38:27;99721.09;;;23.52;65.12
58761;BME280;44529;47.464;19.014;2022-08-18T01:41:29;99719.53;;;23.48;64.71
58761;BME280;44529;47.464;19.014;2022-08-18T01:44:32;99729.06;;;23.43;65.58
58761;BME280;44529;47.464;19.014;2022-08-18T01:47:35;99728.28;;;23.43;65.38
58761;BME280;44529;47.464;19.014;2022-08-18T01:50:49;99732.66;;;23.40;65.97
58761;BME280;44529;47.464;19.014;2022-08-18T01:53:51;99729.13;;;23.36;66.38
58761;BME280;44529;47.464;19.014;2022-08-18T01:56:53;99736.22;;;23.37;66.03
58761;BME280;44529;47.464;19.014;2022-08-18T01:59:55;99724.72;;;23.42;65.63
58761;BME280;44529;47.464;19.014;2022-08-18T02:03:03;99738.16;;;23.40;65.48
58761;BME280;44529;47.464;19.014;2022-08-18T02:06:11;99738.16;;;23.40;66.53
58761;BME280;44529;47.464;19.014;2022-08-18T02:09:15;99739.28;;;23.46;65.04
58761;BME280;44529;47.464;19.014;2022-08-18T02:12:25;99729.47;;;23.42;65.17
58761;BME280;44529;47.464;19.014;2022-08-18T02:15:27;99730.69;;;23.37;65.82
58761;BME280;44529;47.464;19.014;2022-08-18T02:18:33;99725.66;;;23.32;65.62
58761;BME280;44529;47.464;19.014;2022-08-18T02:21:52;99726.81;;;23.31;67.32
58761;BME280;44529;47.464;19.014;2022-08-18T02:24:56;99727.22;;;23.30;67.38
58761;BME280;44529;47.464;19.014;2022-08-18T02:27:58;99733.16;;;23.28;66.30
58761;BME280;44529;47.464;19.014;2022-08-18T02:31:14;99737.53;;;23.26;66.26
58761;BME280;44529;47.464;19.014;2022-08-18T02:34:17;99737.94;;;23.24;66.48
58761;BME280;44529;47.464;19.014;2022-08-18T02:37:19;99738.75;;;23.21;67.40
58761;BME280;44529;47.464;19.014;2022-08-18T02:40:22;99739.63;;;23.14;67.23
58761;BME280;44529;47.464;19.014;2022-08-18T02:43:26;99738.84;;;23.14;67.89
58761;BME280;44529;47.464;19.014;2022-08-18T02:46:29;99738.00;;;23.17;67.88
58761;BME280;44529;47.464;19.014;2022-08-18T02:49:32;99736.44;;;23.16;67.70
58761;BME280;44529;47.464;19.014;2022-08-18T02:52:34;99739.63;;;23.14;68.22
58761;BME280;44529;47.464;19.014;2022-08-18T02:55:38;99748.69;;;23.11;67.77
58761;BME280;44529;47.464;19.014;2022-08-18T02:58:40;99743.59;;;23.10;67.56
58761;BME280;44529;47.464;19.014;2022-08-18T03:01:46;99744.84;;;23.02;68.83
58761;BME280;44529;47.464;19.014;2022-08-18T03:04:49;99744.50;;;23.00;68.40
58761;BME280;44529;47.464;19.014;2022-08-18T03:07:52;99751.63;;;22.93;67.76
58761;BME280;44529;47.464;19.014;2022-08-18T03:10:54;99753.97;;;22.95;69.20
58761;BME280;44529;47.464;19.014;2022-08-18T03:13:57;99745.34;;;22.89;68.16
58761;BME280;44529;47.464;19.014;2022-08-18T03:16:59;99745.00;;;22.87;69.44
58761;BME280;44529;47.464;19.014;2022-08-18T03:20:02;99761.03;;;23.00;68.00
58761;BME280;44529;47.464;19.014;2022-08-18T03:23:05;99762.13;;;23.09;67.88
58761;BME280;44529;47.464;19.014;2022-08-18T03:26:13;99766.84;;;23.12;68.46
58761;BME280;44529;47.464;19.014;2022-08-18T03:29:16;99773.56;;;23.08;69.17
58761;BME280;44529;47.464;19.014;2022-08-18T03:32:18;99773.97;;;23.06;68.96
58761;BME280;44529;47.464;19.014;2022-08-18T03:35:20;99773.50;;;23.15;68.29
58761;BME280;44529;47.464;19.014;2022-08-18T03:38:22;99767.53;;;23.20;68.62
58761;BME280;44529;47.464;19.014;2022-08-18T03:41:26;99769.09;;;23.21;68.71
58761;BME280;44529;47.464;19.014;2022-08-18T03:44:49;99761.97;;;23.27;68.31
58761;BME280;44529;47.464;19.014;2022-08-18T03:47:51;99762.31;;;23.29;68.45
58761;BME280;44529;47.464;19.014;2022-08-18T03:50:54;99768.53;;;23.40;67.81
58761;BME280;44529;47.464;19.014;2022-08-18T03:53:59;99767.34;;;23.38;67.94
58761;BME280;44529;47.464;19.014;2022-08-18T03:57:01;99762.16;;;23.43;67.53
58761;BME280;44529;47.464;19.014;2022-08-18T04:00:04;99768.94;;;23.39;68.56
58761;BME280;44529;47.464;19.014;2022-08-18T04:03:07;99755.47;;;23.44;67.90
58761;BME280;44529;47.464;19.014;2022-08-18T04:06:19;99761.38;;;23.43;67.53
58761;BME280;44529;47.464;19.014;2022-08-18T04:09:33;99760.66;;;23.39;67.78
58761;BME280;44529;47.464;19.014;2022-08-18T04:12:35;99763.41;;;23.39;67.81
58761;BME280;44529;47.464;19.014;2022-08-18T04:15:39;99769.31;;;23.37;67.43
58761;BME280;44529;47.464;19.014;2022-08-18T04:18:41;99770.53;;;23.36;67.92
58761;BME280;44529;47.464;19.014;2022-08-18T04:21:44;99772.06;;;23.41;67.59
58761;BME280;44529;47.464;19.014;2022-08-18T04:24:47;99769.66;;;23.43;67.73
58761;BME280;44529;47.464;19.014;2022-08-18T04:27:52;99767.75;;;23.36;68.04
58761;BME280;44529;47.464;19.014;2022-08-18T04:31:07;99762.09;;;23.50;66.84
58761;BME280;44529;47.464;19.014;2022-08-18T04:34:11;99773.44;;;23.60;66.59
58761;BME280;44529;47.464;19.014;2022-08-18T04:37:15;99767.53;;;23.61;66.42
58761;BME280;44529;47.464;19.014;2022-08-18T04:40:17;99772.25;;;23.61;66.22
58761;BME280;44529;47.464;19.014;2022-08-18T04:43:26;99767.16;;;23.56;67.45
58761;BME280;44529;47.464;19.014;2022-08-18T04:46:29;99774.66;;;23.55;67.02
58761;BME280;44529;47.464;19.014;2022-08-18T04:49:31;99773.41;;;23.63;66.67
58761;BME280;44529;47.464;19.014;2022-08-18T04:52:35;99767.03;;;23.70;66.37
58761;BME280;44529;47.464;19.014;2022-08-18T04:55:55;99780.84;;;23.70;66.14
58761;BME280;44529;47.464;19.014;2022-08-18T04:59:03;99776.94;;;23.67;66.72
58761;BME280;44529;47.464;19.014;2022-08-18T05:02:08;99770.19;;;23.72;66.12
58761;BME280;44529;47.464;19.014;2022-08-18T05:05:16;99778.88;;;23.70;66.70
58761;BME280;44529;47.464;19.014;2022-08-18T05:08:18;99772.06;;;23.78;65.94
58761;BME280;44529;47.464;19.014;2022-08-18T05:11:22;99773.63;;;23.80;65.78
58761;BME280;44529;47.464;19.014;2022-08-18T05:14:25;99764.16;;;23.81;66.49
58761;BME280;44529;47.464;19.014;2022-08-18T05:17:27;99773.59;;;23.83;66.37
58761;BME280;44529;47.464;19.014;2022-08-18T05:20:32;99768.03;;;23.87;66.37
58761;BME280;44529;47.464;19.014;2022-08-18T05:23:34;99760.44;;;23.94;66.06
58761;BME280;44529;47.464;19.014;2022-08-18T05:26:37;99767.50;;;23.95;65.77
58761;BME280;44529;47.464;19.014;2022-08-18T05:29:41;99769.47;;;23.98;65.70
58761;BME280;44529;47.464;19.014;2022-08-18T05:32:47;99775.34;;;24.00;65.93
58761;BME280;44529;47.464;19.014;2022-08-18T05:36:00;99772.59;;;24.00;65.67
58761;BME280;44529;47.464;19.014;2022-08-18T05:42:19;99774.53;;;24.03;66.77
58761;BME280;44529;47.464;19.014;2022-08-18T05:45:23;99777.63;;;24.09;65.29
58761;BME280;44529;47.464;19.014;2022-08-18T05:48:25;99779.50;;;24.16;65.35
58761;BME280;44529;47.464;19.014;2022-08-18T05:51:34;99778.66;;;24.19;65.58
58761;BME280;44529;47.464;19.014;2022-08-18T05:54:48;99781.44;;;24.19;66.09
58761;BME280;44529;47.464;19.014;2022-08-18T05:58:17;99781.88;;;24.14;66.84
58761;BME280;44529;47.464;19.014;2022-08-18T06:01:26;99786.44;;;24.27;64.40
58761;BME280;44529;47.464;19.014;2022-08-18T06:04:52;99774.72;;;24.47;63.42
58761;BME280;44529;47.464;19.014;2022-08-18T06:07:59;99787.06;;;24.42;64.68
58761;BME280;44529;47.464;19.014;2022-08-18T06:11:03;99802.09;;;24.41;65.33
58761;BME280;44529;47.464;19.014;2022-08-18T06:14:05;99790.22;;;24.41;65.89
58761;BME280;44529;47.464;19.014;2022-08-18T06:30:11;99807.53;;;24.45;65.94
58761;BME280;44529;47.464;19.014;2022-08-18T06:33:43;99796.44;;;24.48;65.86
58761;BME280;44529;47.464;19.014;2022-08-18T06:36:54;99800.66;;;24.56;65.38
58761;BME280;44529;47.464;19.014;2022-08-18T06:39:59;99791.44;;;24.67;64.74
58761;BME280;44529;47.464;19.014;2022-08-18T06:43:05;99808.75;;;24.71;65.10
58761;BME280;44529;47.464;19.014;2022-08-18T06:46:16;99804.06;;;24.68;65.39
58761;BME280;44529;47.464;19.014;2022-08-18T06:49:37;99802.69;;;24.79;64.82
58761;BME280;44529;47.464;19.014;2022-08-18T06:52:56;99799.03;;;24.86;64.73
58761;BME280;44529;47.464;19.014;2022-08-18T06:56:20;99797.06;;;24.87;65.00
58761;BME280;44529;47.464;19.014;2022-08-18T06:59:30;99790.22;;;24.95;64.97
58761;BME280;44529;47.464;19.014;2022-08-18T07:02:42;99794.41;;;25.06;64.17
58761;BME280;44529;47.464;19.014;2022-08-18T07:09:19;99778.03;;;25.16;63.57
58761;BME280;44529;47.464;19.014;2022-08-18T07:12:25;99770.31;;;25.27;63.46
58761;BME280;44529;47.464;19.014;2022-08-18T07:15:34;99778.47;;;25.34;63.56
58761;BME280;44529;47.464;19.014;2022-08-18T07:18:36;99776.00;;;25.39;62.57
58761;BME280;44529;47.464;19.014;2022-08-18T07:21:39;99773.41;;;25.52;62.11
58761;BME280;44529;47.464;19.014;2022-08-18T07:24:46;99774.00;;;25.63;62.24
58761;BME280;44529;47.464;19.014;2022-08-18T07:27:50;99771.06;;;25.71;61.71
58761;BME280;44529;47.464;19.014;2022-08-18T07:31:33;99776.69;;;25.87;61.18
58761;BME280;44529;47.464;19.014;2022-08-18T07:34:41;99775.91;;;26.06;60.23
58761;BME280;44529;47.464;19.014;2022-08-18T07:37:59;99771.66;;;26.38;58.75
58761;BME280;44529;47.464;19.014;2022-08-18T07:41:27;99767.53;;;26.79;56.90
58761;BME280;44529;47.464;19.014;2022-08-18T07:44:45;99766.31;;;27.29;55.01
58761;BME280;44529;47.464;19.014;2022-08-18T07:47:56;99767.59;;;27.69;52.38
58761;BME280;44529;47.464;19.014;2022-08-18T07:54:44;99774.66;;;28.67;50.52
58761;BME280;44529;47.464;19.014;2022-08-18T08:01:21;99782.59;;;29.50;48.68
58761;BME280;44529;47.464;19.014;2022-08-18T08:04:42;99790.44;;;29.86;47.41
58761;BME280;44529;47.464;19.014;2022-08-18T08:08:09;99788.97;;;30.16;47.06
58761;BME280;44529;47.464;19.014;2022-08-18T08:15:02;99802.47;;;30.98;44.18
58761;BME280;44529;47.464;19.014;2022-08-18T08:21:41;99816.81;;;31.74;42.65
58761;BME280;44529;47.464;19.014;2022-08-18T08:32:05;99813.59;;;32.87;39.29
58761;BME280;44529;47.464;19.014;2022-08-18T08:35:13;99810.34;;;32.80;39.83
58761;BME280;44529;47.464;19.014;2022-08-18T08:38:47;99806.97;;;33.24;38.22
58761;BME280;44529;47.464;19.014;2022-08-18T08:42:07;99809.72;;;33.72;37.37
58761;BME280;44529;47.464;19.014;2022-08-18T08:45:34;99805.13;;;33.98;36.72
58761;BME280;44529;47.464;19.014;2022-08-18T08:48:49;99796.00;;;34.47;35.76
58761;BME280;44529;47.464;19.014;2022-08-18T08:52:00;99794.38;;;34.76;34.67
58761;BME280;44529;47.464;19.014;2022-08-18T08:55:05;99795.72;;;34.81;35.46
58761;BME280;44529;47.464;19.014;2022-08-18T08:58:21;99785.56;;;35.04;34.86
58761;BME280;44529;47.464;19.014;2022-08-18T09:02:24;99786.91;;;35.49;34.12
58761;BME280;44529;47.464;19.014;2022-08-18T09:05:17;99778.13;;;35.67;34.13
58761;BME280;44529;47.464;19.014;2022-08-18T09:11:54;99780.34;;;36.10;32.36
58761;BME280;44529;47.464;19.014;2022-08-18T09:18:52;99766.72;;;36.34;31.65
58761;BME280;44529;47.464;19.014;2022-08-18T09:25:53;99760.19;;;36.17;31.72
58761;BME280;44529;47.464;19.014;2022-08-18T09:38:35;99756.06;;;36.44;31.09
58761;BME280;44529;47.464;19.014;2022-08-18T09:42:05;99753.97;;;36.39;31.06
58761;BME280;44529;47.464;19.014;2022-08-18T09:48:40;99752.72;;;36.08;31.45
58761;BME280;44529;47.464;19.014;2022-08-18T09:51:50;99743.00;;;36.09;31.28
58761;BME280;44529;47.464;19.014;2022-08-18T09:58:50;99727.84;;;36.01;31.14
58761;BME280;44529;47.464;19.014;2022-08-18T10:02:06;99710.13;;;35.95;31.14
58761;BME280;44529;47.464;19.014;2022-08-18T10:05:28;99704.72;;;35.91;31.43
58761;BME280;44529;47.464;19.014;2022-08-18T10:08:40;99701.72;;;36.00;31.24
58761;BME280;44529;47.464;19.014;2022-08-18T10:22:43;99691.41;;;35.92;30.85
58761;BME280;44529;47.464;19.014;2022-08-18T10:25:48;99698.03;;;35.89;30.28
58761;BME280;44529;47.464;19.014;2022-08-18T10:28:52;99696.75;;;35.90;30.92
58761;BME280;44529;47.464;19.014;2022-08-18T10:34:58;99703.50;;;35.98;31.02
58761;BME280;44529;47.464;19.014;2022-08-18T10:38:22;99700.25;;;35.79;29.70
58761;BME280;44529;47.464;19.014;2022-08-18T10:41:29;99693.25;;;35.69;29.48
58761;BME280;44529;47.464;19.014;2022-08-18T10:44:37;99692.81;;;35.76;29.41
58761;BME280;44529;47.464;19.014;2022-08-18T10:47:42;99688.97;;;35.79;29.90
58761;BME280;44529;47.464;19.014;2022-08-18T11:00:45;99667.25;;;35.79;29.53
58761;BME280;44529;47.464;19.014;2022-08-18T11:04:31;99676.50;;;35.86;29.52
58761;BME280;44529;47.464;19.014;2022-08-18T11:07:40;99667.97;;;35.74;29.20
58761;BME280;44529;47.464;19.014;2022-08-18T11:10:54;99677.16;;;35.69;30.43
58761;BME280;44529;47.464;19.014;2022-08-18T11:18:00;99655.22;;;35.79;29.10
58761;BME280;44529;47.464;19.014;2022-08-18T11:21:31;99651.94;;;35.86;29.64
58761;BME280;44529;47.464;19.014;2022-08-18T11:24:43;99648.56;;;35.76;28.81
58761;BME280;44529;47.464;19.014;2022-08-18T11:27:47;99644.88;;;35.65;29.34
58761;BME280;44529;47.464;19.014;2022-08-18T11:30:53;99644.94;;;35.70;28.66
58761;BME280;44529;47.464;19.014;2022-08-18T11:33:57;99633.81;;;35.56;28.31
58761;BME280;44529;47.464;19.014;2022-08-18T11:37:04;99628.09;;;35.44;27.96
58761;BME280;44529;47.464;19.014;2022-08-18T11:43:42;99617.72;;;35.56;28.62
58761;BME280;44529;47.464;19.014;2022-08-18T11:46:48;99608.00;;;35.57;28.69
58761;BME280;44529;47.464;19.014;2022-08-18T11:50:07;99609.00;;;35.54;28.06
58761;BME280;44529;47.464;19.014;2022-08-18T11:53:24;99612.56;;;35.28;26.40
58761;BME280;44529;47.464;19.014;2022-08-18T11:56:33;99607.56;;;35.38;27.02
58761;BME280;44529;47.464;19.014;2022-08-18T11:59:56;99611.22;;;35.44;27.08
58761;BME280;44529;47.464;19.014;2022-08-18T12:03:11;99602.91;;;35.35;26.99
58761;BME280;44529;47.464;19.014;2022-08-18T12:06:24;99601.62;;;35.31;27.37
58761;BME280;44529;47.464;19.014;2022-08-18T12:12:57;99591.94;;;35.63;27.90
58761;BME280;44529;47.464;19.014;2022-08-18T12:19:39;99574.34;;;35.68;27.67
58761;BME280;44529;47.464;19.014;2022-08-18T12:22:43;99582.37;;;35.49;27.41
58761;BME280;44529;47.464;19.014;2022-08-18T12:25:46;99567.56;;;35.54;26.55
58761;BME280;44529;47.464;19.014;2022-08-18T12:28:52;99557.09;;;35.55;26.07
58761;BME280;44529;47.464;19.014;2022-08-18T12:32:02;99562.28;;;35.68;25.97
58761;BME280;44529;47.464;19.014;2022-08-18T12:35:18;99557.97;;;35.72;25.75
58761;BME280;44529;47.464;19.014;2022-08-18T12:38:42;99549.78;;;35.74;25.48
58761;BME280;44529;47.464;19.014;2022-08-18T12:41:54;99547.34;;;35.88;24.91
58761;BME280;44529;47.464;19.014;2022-08-18T12:44:56;99550.16;;;35.88;25.32
58761;BME280;44529;47.464;19.014;2022-08-18T12:47:59;99555.03;;;35.93;25.67
58761;BME280;44529;47.464;19.014;2022-08-18T12:51:06;99561.13;;;35.86;25.86
58761;BME280;44529;47.464;19.014;2022-08-18T12:54:11;99568.16;;;35.64;26.21
58761;BME280;44529;47.464;19.014;2022-08-18T12:57:25;99580.94;;;35.65;26.56
58761;BME280;44529;47.464;19.014;2022-08-18T13:00:48;99581.22;;;35.67;26.75
58761;BME280;44529;47.464;19.014;2022-08-18T13:03:53;99579.41;;;35.64;25.93
58761;BME280;44529;47.464;19.014;2022-08-18T13:07:13;99575.03;;;35.58;24.99
58761;BME280;44529;47.464;19.014;2022-08-18T13:10:20;99578.44;;;35.41;25.46
58761;BME280;44529;47.464;19.014;2022-08-18T13:13:22;99582.09;;;35.47;26.07
58761;BME280;44529;47.464;19.014;2022-08-18T13:16:31;99579.31;;;35.53;26.58
58761;BME280;44529;47.464;19.014;2022-08-18T13:19:55;99582.84;;;35.48;26.85
58761;BME280;44529;47.464;19.014;2022-08-18T13:22:59;99594.09;;;35.48;25.63
58761;BME280;44529;47.464;19.014;2022-08-18T13:26:02;99588.28;;;35.51;25.67
58761;BME280;44529;47.464;19.014;2022-08-18T13:29:07;99583.91;;;35.50;25.55
58761;BME280;44529;47.464;19.014;2022-08-18T13:32:11;99580.03;;;35.48;26.07
58761;BME280;44529;47.464;19.014;2022-08-18T13:35:13;99585.56;;;35.37;25.85
58761;BME280;44529;47.464;19.014;2022-08-18T13:38:17;99590.47;;;35.42;27.00
58761;BME280;44529;47.464;19.014;2022-08-18T13:41:30;99576.13;;;35.40;26.98
58761;BME280;44529;47.464;19.014;2022-08-18T13:44:33;99569.38;;;35.26;26.87
58761;BME280;44529;47.464;19.014;2022-08-18T13:47:36;99583.66;;;35.22;26.21
58761;BME280;44529;47.464;19.014;2022-08-18T13:50:39;99577.81;;;35.26;26.98
58761;BME280;44529;47.464;19.014;2022-08-18T13:53:42;99573.72;;;35.27;27.55
58761;BME280;44529;47.464;19.014;2022-08-18T13:57:05;99561.97;;;35.28;27.34
58761;BME280;44529;47.464;19.014;2022-08-18T14:00:09;99576.78;;;35.29;27.15
58761;BME280;44529;47.464;19.014;2022-08-18T14:03:21;99578.03;;;35.22;27.30
58761;BME280;44529;47.464;19.014;2022-08-18T14:06:44;99564.72;;;35.23;27.72
58761;BME280;44529;47.464;19.014;2022-08-18T14:09:52;99565.25;;;35.21;27.96
58761;BME280;44529;47.464;19.014;2022-08-18T14:12:58;99580.41;;;35.30;26.54
58761;BME280;44529;47.464;19.014;2022-08-18T14:16:00;99587.31;;;35.34;27.04
58761;BME280;44529;47.464;19.014;2022-08-18T14:19:04;99589.56;;;35.24;26.81
58761;BME280;44529;47.464;19.014;2022-08-18T14:22:29;99591.53;;;35.18;25.60
58761;BME280;44529;47.464;19.014;2022-08-18T14:25:50;99592.06;;;35.22;26.25
58761;BME280;44529;47.464;19.014;2022-08-18T14:29:12;99585.41;;;35.20;26.60
58761;BME280;44529;47.464;19.014;2022-08-18T14:32:20;99596.47;;;35.23;26.56
58761;BME280;44529;47.464;19.014;2022-08-18T14:35:31;99594.12;;;35.22;26.97
58761;BME280;44529;47.464;19.014;2022-08-18T14:38:53;99594.12;;;35.22;27.20
58761;BME280;44529;47.464;19.014;2022-08-18T14:41:56;99592.00;;;35.11;26.71
58761;BME280;44529;47.464;19.014;2022-08-18T14:44:59;99587.34;;;35.08;26.93
58761;BME280;44529;47.464;19.014;2022-08-18T14:48:20;99587.84;;;35.07;27.25
58761;BME280;44529;47.464;19.014;2022-08-18T14:51:24;99588.13;;;35.09;27.16
58761;BME280;44529;47.464;19.014;2022-08-18T14:54:30;99588.84;;;35.04;27.17
58761;BME280;44529;47.464;19.014;2022-08-18T14:57:32;99586.19;;;34.94;25.70
58761;BME280;44529;47.464;19.014;2022-08-18T15:00:34;99578.03;;;34.96;24.89
58761;BME280;44529;47.464;19.014;2022-08-18T15:03:55;99577.31;;;35.01;24.83
58761;BME280;44529;47.464;19.014;2022-08-18T15:06:57;99574.50;;;35.01;24.70
58761;BME280;44529;47.464;19.014;2022-08-18T15:10:00;99573.53;;;35.05;24.52
58761;BME280;44529;47.464;19.014;2022-08-18T15:13:17;99569.66;;;35.02;24.44
58761;BME280;44529;47.464;19.014;2022-08-18T15:16:21;99566.31;;;34.98;24.47
58761;BME280;44529;47.464;19.014;2022-08-18T15:19:33;99560.91;;;34.94;24.04
58761;BME280;44529;47.464;19.014;2022-08-18T15:23:00;99559.37;;;34.93;24.28
58761;BME280;44529;47.464;19.014;2022-08-18T15:26:29;99556.06;;;34.95;24.75
58761;BME280;44529;47.464;19.014;2022-08-18T15:29:32;99568.44;;;34.83;25.94
58761;BME280;44529;47.464;19.014;2022-08-18T15:32:35;99571.41;;;34.73;26.23
58761;BME280;44529;47.464;19.014;2022-08-18T15:35:39;99565.28;;;34.75;26.00
58761;BME280;44529;47.464;19.014;2022-08-18T15:38:45;99568.31;;;34.71;25.64
58761;BME280;44529;47.464;19.014;2022-08-18T15:41:52;99576.69;;;34.66;26.37
58761;BME280;44529;47.464;19.014;2022-08-18T15:44:55;99576.63;;;34.60;26.86
58761;BME280;44529;47.464;19.014;2022-08-18T15:47:57;99586.53;;;34.56;26.87
58761;BME280;44529;47.464;19.014;2022-08-18T15:51:00;99580.13;;;34.55;26.91
58761;BME280;44529;47.464;19.014;2022-08-18T15:54:13;99577.00;;;34.47;26.67
58761;BME280;44529;47.464;19.014;2022-08-18T15:57:16;99568.50;;;34.42;25.66
58761;BME280;44529;47.464;19.014;2022-08-18T16:00:44;99558.81;;;34.43;26.05
58761;BME280;44529;47.464;19.014;2022-08-18T16:03:49;99558.69;;;34.37;26.03
58761;BME280;44529;47.464;19.014;2022-08-18T16:06:52;99551.28;;;34.34;26.16
58761;BME280;44529;47.464;19.014;2022-08-18T16:09:57;99551.97;;;34.29;26.32
58761;BME280;44529;47.464;19.014;2022-08-18T16:12:59;99551.41;;;34.25;26.11
58761;BME280;44529;47.464;19.014;2022-08-18T16:16:16;99558.50;;;34.20;26.75
58761;BME280;44529;47.464;19.014;2022-08-18T16:19:37;99554.88;;;34.14;26.66
58761;BME280;44529;47.464;19.014;2022-08-18T16:22:40;99557.59;;;34.09;27.16
58761;BME280;44529;47.464;19.014;2022-08-18T16:25:42;99563.12;;;34.03;27.91
58761;BME280;44529;47.464;19.014;2022-08-18T16:28:47;99549.72;;;33.92;27.20
58761;BME280;44529;47.464;19.014;2022-08-18T16:31:51;99549.91;;;33.89;27.90
58761;BME280;44529;47.464;19.014;2022-08-18T16:34:54;99564.03;;;33.80;28.24
58761;BME280;44529;47.464;19.014;2022-08-18T16:38:02;99562.41;;;33.73;28.58
58761;BME280;44529;47.464;19.014;2022-08-18T16:41:11;99556.44;;;33.65;28.90
58761;BME280;44529;47.464;19.014;2022-08-18T16:44:16;99559.37;;;33.56;29.23
58761;BME280;44529;47.464;19.014;2022-08-18T16:47:19;99558.97;;;33.49;29.45
58761;BME280;44529;47.464;19.014;2022-08-18T16:50:21;99551.94;;;33.38;29.52
58761;BME280;44529;47.464;19.014;2022-08-18T16:53:26;99546.13;;;33.27;29.83
58761;BME280;44529;47.464;19.014;2022-08-18T16:56:41;99542.69;;;33.18;30.26
58761;BME280;44529;47.464;19.014;2022-08-18T16:59:43;99538.13;;;33.05;30.44
58761;BME280;44529;47.464;19.014;2022-08-18T17:03:05;99534.38;;;32.94;30.79
58761;BME280;44529;47.464;19.014;2022-08-18T17:06:26;99534.13;;;32.82;31.11
58761;BME280;44529;47.464;19.014;2022-08-18T17:09:30;99532.09;;;32.68;32.20
58761;BME280;44529;47.464;19.014;2022-08-18T17:12:32;99518.38;;;32.55;32.81
58761;BME280;44529;47.464;19.014;2022-08-18T17:15:35;99524.41;;;32.39;32.37
58761;BME280;44529;47.464;19.014;2022-08-18T17:18:38;99523.41;;;32.27;33.15
58761;BME280;44529;47.464;19.014;2022-08-18T17:21:40;99526.44;;;32.15;35.61
58761;BME280;44529;47.464;19.014;2022-08-18T17:24:44;99522.31;;;32.01;36.39
58761;BME280;44529;47.464;19.014;2022-08-18T17:27:50;99510.59;;;31.88;36.12
58761;BME280;44529;47.464;19.014;2022-08-18T17:30:54;99502.12;;;31.73;36.06
58761;BME280;44529;47.464;19.014;2022-08-18T17:34:07;99500.03;;;31.59;36.69
58761;BME280;44529;47.464;19.014;2022-08-18T17:37:14;99493.88;;;31.45;36.28
58761;BME280;44529;47.464;19.014;2022-08-18T17:40:41;99477.63;;;31.35;36.56
58761;BME280;44529;47.464;19.014;2022-08-18T17:43:45;99471.44;;;31.21;37.76
58761;BME280;44529;47.464;19.014;2022-08-18T17:46:48;99473.38;;;31.06;36.19
58761;BME280;44529;47.464;19.014;2022-08-18T17:49:51;99476.19;;;30.97;35.00
58761;BME280;44529;47.464;19.014;2022-08-18T17:53:33;99486.00;;;30.92;35.80
58761;BME280;44529;47.464;19.014;2022-08-18T17:56:43;99496.25;;;30.86;36.96
58761;BME280;44529;47.464;19.014;2022-08-18T17:59:52;99504.94;;;30.79;36.32
58761;BME280;44529;47.464;19.014;2022-08-18T18:02:59;99501.38;;;30.69;35.73
58761;BME280;44529;47.464;19.014;2022-08-18T18:06:12;99507.72;;;30.61;37.64
58761;BME280;44529;47.464;19.014;2022-08-18T18:12:24;99512.84;;;30.44;39.14
58761;BME280;44529;47.464;19.014;2022-08-18T18:15:31;99519.50;;;30.37;39.60
58761;BME280;44529;47.464;19.014;2022-08-18T18:18:42;99515.00;;;30.31;39.71
58761;BME280;44529;47.464;19.014;2022-08-18T18:22:01;99518.88;;;30.24;38.54